Woodland, CA (95695)

7:04 AM PST on February 06, 2016 (GMT -0800)
KCAWOODL15 | | Change Station
CLOSE
Current Station
Personal Weather Station
Location: Woodland, CA
Elevation: 50 ft
Nearby Weather Stations

Elev 50 ft 38.66 °N, 121.77 °W | Updated 6 seconds ago

Fog
Fog
41.1 °F
Feels Like 41 °F
N
0.0
Wind Variable Wind from SW
Gusts 1.0 mph

Today
High -- | Low -- °F
--% Chance of Precip.
Yesterday
High -- | Low -- °F
Precip. -- in
Pressure 30.46 in
Visibility 10.0 miles
Clouds Clear
Windchill 41 °F
Dew Point 38 °F
Humidity 89%
Rainfall 0.00 in
Snow Depth Not available.
7:08 AM 5:34 PM
Waning Crescent, 5% visible
METAR KEDU 061455Z AUTO 00000KT 10SM CLR 03/02 A3046 RMK AO1
Pressure 30.46 in
Visibility 10.0 miles
Clouds Clear
Windchill 41 °F
Dew Point 38 °F
Humidity 89%
Rainfall 0.00 in
Snow Depth Not available.
7:08 AM 5:34 PM
Waning Crescent, 5% visible
METAR KEDU 061455Z AUTO 00000KT 10SM CLR 03/02 A3046 RMK AO1

10-Day Weather Forecast

Almanac

Astronomy

Feb. 06, 2016 Rise Set
Actual Time
Civil Twilight
Nautical Twilight
Astronomical Twilight
Moon
Length of Visible Light
Length of Day
Tomorrow will be .
, % of the Moon is Illuminated

Today's Extremes

State Highs State Lows

Community

WunderPhotos

Upload Photos

1,890,984 photos uploaded!

WunderBlog® & News

Nearby

Air Quality

  Air Quality AQ Index Pollutant
Not available.

Snow Depth

Station Depth Elevation

Earthquake Activity

City Distance Mag. Time & Date
Minimum magnitude displayed is 2.5.

Coastal Water Temperatures

Place Temperature

Stations

Nearby Weather Stations

Station Location Temp. Windchill Dew Point Humidity Wind Precip. Elev Updated Type
                   

Watches & Warnings

There are currently no watches in effect.